KAMA

Rick Husband Amarillo International Airport

Amarillo, Texas, USA
METAR KAMA 261253Z 21009KT 10SM CLR 19/12 A2994 RMK AO2 SLP080 T01890122
Observed Flight Rules
May-26 @ 12:53 UTC (35 minutes ago) Visual Flight Rules
Wind Visibility Clouds
210° at 9 knots 10 miles
  • Clear skies
Temperatures Readings
Current 19°C / 66°F
Dewpoint 12°C / 54°F
Humidity 64%
Altimeter 29.94" Hg
Pressure 1008 hPa
Elevation 1093
METAR KAMA 261253Z 21009KT 10SM CLR 19/12 A2994 RMK AO2 SLP080 T01890122
Observed Flight Rules
May-26 @ 12:53 UTC
(35 minutes ago)
VFR
Wind Visibility
210° at 9 knots 10 miles
Clouds
  • Clear skies
Temperature Dewpoint
19°C / 66°F 12°C / 54°F
Humidity Altimeter Pressure
64% 29.94" Hg 1008 hPa